Time;durP1;ratioP1;P1;durP2;ratioP2;P2;SDS_P1;SDS_P2;PMS_P1;PMS_P2;Temp;Humidity;BMP_temperature;BMP_pressure;BME280_temperature;BME280_humidity;BME280_pressure;Samples;Min_cycle;Max_cycle;Signal;HPM_P1;HPM_P2
2022/04/09 00:00:31;;;;;;;2.22;1.00;;;;;;;15.33;63.97;98125.75;4459431;32;34463;-83
2022/04/09 00:02:59;;;;;;;3.05;1.12;;;;;;;15.20;64.54;98108.88;4459387;32;33961;-83
2022/04/09 00:05:27;;;;;;;3.08;1.10;;;;;;;15.26;64.53;98113.31;4472295;32;33165;-83
2022/04/09 00:07:54;;;;;;;2.35;0.85;;;;;;;15.20;64.51;98109.72;4459334;32;34514;-83
2022/04/09 00:10:22;;;;;;;3.83;1.00;;;;;;;15.26;64.30;98105.84;4472379;32;34414;-86
2022/04/09 00:12:52;;;;;;;2.42;1.02;;;;;;;15.38;63.91;98102.78;4472076;32;34032;-84
2022/04/09 00:15:22;;;;;;;2.30;0.90;;;;;;;15.37;63.72;98081.78;4458875;32;32658;-84
2022/04/09 00:17:50;;;;;;;2.72;1.00;;;;;;;15.33;63.72;98078.75;4459774;32;34453;-84
2022/04/09 00:20:21;;;;;;;2.80;1.35;;;;;;;15.30;64.01;98076.53;4459249;32;34019;-83
2022/04/09 00:22:48;;;;;;;2.47;1.12;;;;;;;15.25;64.07;98072.94;4459656;32;33962;-82
2022/04/09 00:25:21;;;;;;;6.00;1.10;;;;;;;15.26;64.24;98067.16;4459252;32;33021;-82
2022/04/09 00:27:52;;;;;;;3.62;1.27;;;;;;;15.38;63.94;98056.63;4472937;32;33535;-84
2022/04/09 00:30:22;;;;;;;4.15;1.40;;;;;;;15.26;64.36;98069.91;4459515;32;35388;-84
2022/04/09 00:32:50;;;;;;;7.12;1.83;;;;;;;15.11;64.89;98067.16;4459477;32;33995;-84
2022/04/09 00:35:18;;;;;;;4.68;1.90;;;;;;;15.10;64.97;98059.97;4459439;32;33417;-84
2022/04/09 00:37:47;;;;;;;5.60;1.70;;;;;;;15.27;64.22;98054.16;4446506;32;32334;-84
2022/04/09 00:40:19;;;;;;;5.30;1.67;;;;;;;15.30;64.20;98048.91;4472270;32;35338;-84
2022/04/09 00:42:49;;;;;;;3.37;1.65;;;;;;;15.15;64.77;98046.16;4472658;32;33822;-84
2022/04/09 00:45:17;;;;;;;5.03;1.62;;;;;;;15.18;64.79;98042.00;4459614;32;33177;-83
2022/04/09 00:47:47;;;;;;;3.42;1.40;;;;;;;15.14;64.86;98038.97;4446548;32;32347;-84
2022/04/09 00:50:16;;;;;;;6.03;2.42;;;;;;;14.88;64.74;98057.53;4458680;32;34320;-85
2022/04/09 00:52:51;;;;;;;9.05;3.40;;;;;;;14.94;64.54;98050.91;4459015;32;34754;-83
2022/04/09 00:56:12;;;;;;;6.10;3.10;;;;;;;15.00;64.66;98062.75;4472237;32;33226;-84
2022/04/09 00:58:17;;;;;;;3.70;1.52;;;;;;;15.00;64.95;98082.09;4461127;32;33157;-86
2022/04/09 01:00:45;;;;;;;;;;;;;;;14.66;65.82;98101.97;4459339;32;33450;-85
2022/04/09 01:03:21;;;;;;;2.42;1.20;;;;;;;14.90;65.06;98098.69;4459199;32;35302;-83
2022/04/09 01:05:49;;;;;;;3.05;1.40;;;;;;;14.76;65.87;98107.53;4472114;32;32706;-84
2022/04/09 01:08:17;;;;;;;4.60;1.50;;;;;;;14.91;65.31;98112.22;4459216;32;33868;-84
2022/04/09 01:10:51;;;;;;;4.50;1.50;;;;;;;14.98;65.17;98114.69;4485546;32;35098;-84
2022/04/09 01:13:20;;;;;;;4.75;1.70;;;;;;;15.09;64.77;98097.84;4486585;32;33946;-83
2022/04/09 01:15:48;;;;;;;3.15;1.60;;;;;;;15.08;64.84;98068.53;4459282;32;34110;-81
2022/04/09 01:18:18;;;;;;;2.83;1.33;;;;;;;14.99;65.33;98056.41;4459402;32;34568;-83
2022/04/09 01:20:48;;;;;;;4.22;1.20;;;;;;;15.10;64.99;98048.94;4447390;32;33849;-84
2022/04/09 01:23:18;;;;;;;3.20;1.10;;;;;;;14.90;65.29;98051.72;4459717;32;33937;-83
2022/04/09 01:25:46;;;;;;;8.25;3.35;;;;;;;14.67;64.65;98042.06;4472514;32;33403;-85
2022/04/09 01:28:14;;;;;;;6.20;1.20;;;;;;;14.86;64.39;98056.16;4459575;32;34489;-84
2022/04/09 01:30:41;;;;;;;4.00;1.30;;;;;;;14.76;64.74;98065.25;4446768;32;33413;-84
2022/04/09 01:33:20;;;;;;;5.75;1.48;;;;;;;14.79;64.84;98078.53;4459742;32;34011;-85
2022/04/09 01:35:48;;;;;;;5.07;1.62;;;;;;;14.68;65.27;98087.91;4472022;32;33137;-84
2022/04/09 01:38:20;;;;;;;3.95;1.30;;;;;;;14.61;65.49;98087.34;4458984;32;32142;-84
2022/04/09 01:40:49;;;;;;;3.47;1.27;;;;;;;14.62;65.73;98109.16;4472049;32;34433;-84
2022/04/09 01:43:18;;;;;;;5.78;1.52;;;;;;;14.34;67.22;98106.84;4459073;32;32315;-83
2022/04/09 01:45:46;;;;;;;5.22;1.60;;;;;;;14.64;65.98;98089.56;4459404;32;34023;-84
2022/04/09 01:48:14;;;;;;;3.90;1.17;;;;;;;14.61;65.93;98103.91;4472154;32;33690;-85
2022/04/09 01:50:42;;;;;;;5.47;1.60;;;;;;;14.55;66.30;98105.81;4471680;32;34316;-84
2022/04/09 01:53:16;;;;;;;3.78;1.42;;;;;;;14.65;65.91;98103.09;4459201;32;32421;-83
2022/04/09 01:55:44;;;;;;;3.05;1.33;;;;;;;14.78;65.69;98112.75;4458966;32;33888;-83
2022/04/09 01:58:12;;;;;;;2.72;0.90;;;;;;;14.80;65.48;98085.69;4471544;32;33705;-84
2022/04/09 02:00:40;;;;;;;3.55;1.00;;;;;;;14.29;62.75;98076.50;4458434;32;32874;-84
2022/04/09 02:03:10;;;;;;;3.28;1.17;;;;;;;14.35;64.59;98091.94;4485942;32;34540;-82
2022/04/09 02:05:38;;;;;;;5.55;1.25;;;;;;;14.18;66.85;98081.16;4458577;32;31905;-83
2022/04/09 02:08:06;;;;;;;4.72;1.40;;;;;;;14.38;66.28;98094.16;4458714;32;33612;-83
2022/04/09 02:10:34;;;;;;;3.33;1.30;;;;;;;14.38;66.57;98099.69;4471710;32;35312;-82
2022/04/09 02:13:12;;;;;;;3.67;1.70;;;;;;;14.26;66.67;98088.91;4471537;32;33953;-83
2022/04/09 02:15:43;;;;;;;4.68;1.30;;;;;;;14.38;66.64;98092.22;4471616;32;33493;-84
2022/04/09 02:18:14;;;;;;;4.47;1.70;;;;;;;14.39;66.89;98084.78;4471404;32;34446;-84
2022/04/09 02:20:42;;;;;;;3.37;1.40;;;;;;;14.18;68.16;98072.87;4458372;32;34347;-84
2022/04/09 02:23:11;;;;;;;3.30;1.12;;;;;;;13.94;69.01;98072.53;4445083;32;33332;-83
2022/04/09 02:25:41;;;;;;;5.87;1.70;;;;;;;14.09;68.42;98064.31;4458575;32;33026;-84
2022/04/09 02:28:12;;;;;;;3.28;1.48;;;;;;;14.26;68.25;98060.50;4445497;32;33181;-84
2022/04/09 02:30:40;;;;;;;5.00;1.75;;;;;;;14.14;68.70;98067.09;4471396;32;35028;-83
2022/04/09 02:33:11;;;;;;;5.60;1.77;;;;;;;14.08;68.97;98070.09;4458821;32;34131;-84
2022/04/09 02:35:39;;;;;;;4.97;2.10;;;;;;;14.04;69.78;98082.78;4485261;32;34043;-83
2022/04/09 02:38:09;;;;;;;4.55;1.65;;;;;;;14.23;69.08;98083.09;4458414;32;33724;-84
2022/04/09 02:40:38;;;;;;;6.32;2.10;;;;;;;14.03;69.98;98090.22;4458506;32;34325;-83
2022/04/09 02:43:06;;;;;;;9.27;2.30;;;;;;;13.98;70.52;98092.12;4458692;32;34008;-83
2022/04/09 02:45:35;;;;;;;6.82;2.00;;;;;;;13.68;71.64;98093.63;4445665;32;31937;-83
2022/04/09 02:48:04;;;;;;;6.78;1.87;;;;;;;13.97;70.40;98102.31;4458294;32;33713;-83
2022/04/09 02:50:35;;;;;;;5.72;2.53;;;;;;;13.83;71.45;98120.47;4458137;32;35163;-82
2022/04/09 02:53:09;;;;;;;5.68;1.98;;;;;;;13.81;71.71;98117.13;4471102;32;34730;-84
2022/04/09 02:55:40;;;;;;;4.60;1.73;;;;;;;13.87;71.22;98115.25;4445259;32;32991;-84
2022/04/09 02:58:08;;;;;;;4.93;1.70;;;;;;;14.04;70.53;98110.34;4457845;32;32354;-85
2022/04/09 03:00:36;;;;;;;5.30;1.87;;;;;;;14.15;69.77;98099.09;4445311;32;34425;-83
2022/04/09 03:03:07;;;;;;;4.37;1.52;;;;;;;14.09;70.03;98107.62;4458371;32;34559;-83
2022/04/09 03:05:38;;;;;;;4.18;1.50;;;;;;;14.11;70.11;98117.28;4457660;32;34215;-83
2022/04/09 03:08:09;;;;;;;4.95;1.75;;;;;;;13.89;70.51;98122.16;4457518;32;33053;-82
2022/04/09 03:10:39;;;;;;;3.12;1.60;;;;;;;14.02;69.84;98110.63;4457982;32;34409;-83
2022/04/09 03:13:07;;;;;;;3.80;1.37;;;;;;;14.14;69.59;98110.41;4457420;32;33705;-84
2022/04/09 03:15:35;;;;;;;5.00;1.70;;;;;;;14.10;69.82;98115.62;4457167;32;33237;-83
2022/04/09 03:18:04;;;;;;;3.22;1.40;;;;;;;14.08;70.01;98100.44;4457754;32;33502;-82
2022/04/09 03:20:32;;;;;;;3.45;1.80;;;;;;;14.06;69.94;98106.22;4457730;32;33729;-83
2022/04/09 03:22:59;;;;;;;3.40;2.00;;;;;;;14.12;69.59;98127.22;4457574;32;33962;-83
2022/04/09 03:25:27;;;;;;;4.12;1.30;;;;;;;14.14;69.18;98133.28;4457700;32;33439;-83
2022/04/09 03:27:56;;;;;;;2.53;1.05;;;;;;;14.15;69.12;98132.19;4470707;32;33436;-82
2022/04/09 03:30:24;;;;;;;6.22;2.87;;;;;;;14.03;69.60;98120.56;4470561;32;34607;-83
2022/04/09 03:32:52;;;;;;;5.55;1.98;;;;;;;13.93;70.25;98123.28;4445336;32;32489;-82
2022/04/09 03:35:20;;;;;;;20.45;9.05;;;;;;;14.02;69.98;98116.13;4473094;32;33192;-83
2022/04/09 03:37:50;;;;;;;11.80;4.37;;;;;;;14.04;69.51;98097.38;4472446;32;34412;-83
2022/04/09 03:40:21;;;;;;;69.75;26.90;;;;;;;14.23;68.78;98088.63;4459978;32;32889;-82
2022/04/09 03:42:49;;;;;;;43.15;18.85;;;;;;;14.21;68.62;98090.81;4460423;32;33803;-83
2022/04/09 03:45:17;;;;;;;5.00;1.70;;;;;;;14.02;68.79;98116.13;4472682;32;33263;-83
2022/04/09 03:47:45;;;;;;;3.12;1.20;;;;;;;13.91;68.86;98124.63;4472874;32;33856;-79
2022/04/09 03:50:13;;;;;;;2.70;1.05;;;;;;;14.13;68.53;98120.59;4459818;32;34614;-79
2022/04/09 03:52:41;;;;;;;2.47;0.90;;;;;;;14.05;68.11;98101.81;4486631;32;33888;-79
2022/04/09 03:55:09;;;;;;;4.43;2.15;;;;;;;14.23;67.46;98107.94;4472776;32;33350;-80
2022/04/09 03:57:37;;;;;;;4.20;2.28;;;;;;;14.11;67.76;98108.19;4472644;32;33961;-78
2022/04/09 04:00:09;;;;;;;3.12;1.27;;;;;;;14.14;67.49;98108.47;4472732;32;35253;-78
2022/04/09 04:02:41;;;;;;;2.83;1.15;;;;;;;14.24;67.26;98107.66;4473206;32;34727;-79
2022/04/09 04:05:09;;;;;;;2.58;0.90;;;;;;;14.08;67.82;98104.03;4459562;32;31811;-79
2022/04/09 04:07:43;;;;;;;2.65;1.00;;;;;;;14.19;67.34;98099.38;4472453;32;33700;-78
2022/04/09 04:10:12;;;;;;;2.92;0.80;;;;;;;14.26;67.00;98099.94;4486698;32;34139;-79
2022/04/09 04:12:40;;;;;;;0.77;0.50;;;;;;;14.30;66.84;98094.72;4472614;32;33751;-77
2022/04/09 04:15:09;;;;;;;2.75;0.80;;;;;;;14.30;66.73;98087.25;4472574;32;33049;-80
2022/04/09 04:17:43;;;;;;;1.62;0.75;;;;;;;14.13;67.28;98081.16;4472654;32;33851;-79
2022/04/09 04:20:12;;;;;;;1.92;0.75;;;;;;;14.13;67.16;98092.19;4486260;32;35254;-77
2022/04/09 04:22:41;;;;;;;3.30;1.02;;;;;;;14.14;66.88;98080.87;4486692;32;34790;-79
2022/04/09 04:25:10;;;;;;;121.80;81.85;;;;;;;14.10;66.93;98078.94;4459551;32;33344;-78
2022/04/09 04:27:46;;;;;;;223.73;139.70;;;;;;;14.22;66.61;98071.25;4446558;32;32190;-78
2022/04/09 04:30:15;;;;;;;184.23;145.77;;;;;;;14.12;66.93;98074.81;4459441;32;33005;-77
2022/04/09 04:32:43;;;;;;;106.05;94.70;;;;;;;14.14;66.88;98064.31;4459210;32;34758;-78
2022/04/09 04:35:11;;;;;;;11.25;8.45;;;;;;;14.19;66.84;98071.78;4472416;32;34231;-77
2022/04/09 04:37:44;;;;;;;6.12;2.50;;;;;;;14.22;66.64;98062.12;4472285;32;33806;-78
2022/04/09 04:40:13;;;;;;;6.05;1.20;;;;;;;14.22;66.59;98059.38;4471981;32;34302;-77
2022/04/09 04:42:45;;;;;;;7.07;4.10;;;;;;;14.26;66.16;98066.00;4472665;32;33993;-78
2022/04/09 04:45:13;;;;;;;266.50;167.65;;;;;;;14.15;66.64;98054.12;4458781;32;33419;-77
2022/04/09 04:47:47;;;;;;;66.70;45.35;;;;;;;14.14;66.75;98039.50;4472631;32;33680;-78
2022/04/09 04:50:17;;;;;;;34.20;25.55;;;;;;;14.06;67.16;98040.03;4472230;32;33624;-78
2022/04/09 04:52:48;;;;;;;8.15;5.45;;;;;;;13.96;67.22;98028.97;4459202;32;34045;-78
2022/04/09 04:55:16;;;;;;;8.15;5.75;;;;;;;14.05;66.89;98021.81;4459447;32;33103;-78
2022/04/09 04:57:55;;;;;;;5.70;2.70;;;;;;;14.15;66.53;98010.81;4446406;32;32231;-78
2022/04/09 05:00:24;;;;;;;3.55;1.35;;;;;;;14.15;66.50;97985.97;4459072;32;33842;-78
2022/04/09 05:02:53;;;;;;;2.83;1.50;;;;;;;13.75;67.94;97980.34;4459744;32;33910;-78
2022/04/09 05:05:21;;;;;;;4.57;1.60;;;;;;;13.70;68.37;97972.06;4458986;32;31820;-79
2022/04/09 05:07:50;;;;;;;6.12;2.10;;;;;;;13.91;67.48;97976.53;4472069;32;33060;-79
2022/04/09 05:10:22;;;;;;;5.82;2.30;;;;;;;13.88;67.70;97990.88;4471761;32;35185;-78
2022/04/09 05:12:52;;;;;;;3.47;1.70;;;;;;;13.77;67.79;97986.44;4471860;32;33960;-78
2022/04/09 05:15:20;;;;;;;2.97;1.42;;;;;;;13.87;67.77;97967.16;4458852;32;33356;-78
2022/04/09 05:17:48;;;;;;;2.78;1.10;;;;;;;13.86;67.64;97968.25;4472351;32;34583;-77
2022/04/09 05:20:16;;;;;;;4.68;1.70;;;;;;;13.69;68.24;97971.25;4458820;32;34371;-79
2022/04/09 05:22:47;;;;;;;3.10;1.30;;;;;;;13.65;68.58;97969.31;4481535;32;34804;-78
2022/04/09 05:25:20;;;;;;;4.80;1.35;;;;;;;13.75;68.33;97961.88;4484609;32;31837;-79
2022/04/09 05:27:53;;;;;;;3.15;1.40;;;;;;;13.67;68.66;97981.72;4485069;32;33541;-79
2022/04/09 05:30:23;;;;;;;5.55;1.70;;;;;;;13.73;68.48;97982.56;4485002;32;34186;-78
2022/04/09 05:32:51;;;;;;;3.85;1.40;;;;;;;13.61;69.25;97995.78;4485629;31;33830;-76
2022/04/09 05:35:19;;;;;;;6.40;2.00;;;;;;;13.83;68.42;97988.94;4484287;31;34372;-79
2022/04/09 05:37:50;;;;;;;9.10;6.97;;;;;;;13.80;67.87;97988.66;4471538;31;32382;-76
2022/04/09 05:40:19;;;;;;;7.25;5.28;;;;;;;13.48;69.62;97986.06;4474162;31;33688;-79
2022/04/09 05:42:46;;;;;;;20.12;14.15;;;;;;;13.80;68.11;97985.88;4467279;32;34003;-79
2022/04/09 05:45:15;;;;;;;4.35;1.87;;;;;;;13.56;68.76;97996.56;4485876;31;33341;-77
2022/04/09 05:47:44;;;;;;;3.40;1.70;;;;;;;13.60;68.41;97991.34;4492433;31;33744;-76
2022/04/09 05:50:15;;;;;;;3.62;1.50;;;;;;;13.57;69.08;98020.28;4472424;31;32986;-76
2022/04/09 05:52:43;;;;;;;3.62;1.40;;;;;;;13.68;68.62;98007.34;4484257;31;33866;-76
2022/04/09 05:55:11;;;;;;;3.53;1.45;;;;;;;13.58;69.20;98027.47;4485078;31;32388;-77
2022/04/09 05:57:40;;;;;;;4.90;2.03;;;;;;;13.47;69.49;98023.00;4483930;31;34456;-77
2022/04/09 06:00:09;;;;;;;4.00;1.30;;;;;;;13.55;68.56;98025.25;4470070;31;33105;-78
2022/04/09 06:02:43;;;;;;;2.15;1.10;;;;;;;13.49;69.36;98012.53;4474350;31;32534;-77
2022/04/09 06:05:12;;;;;;;3.92;1.33;;;;;;;13.43;69.69;98021.88;4484005;32;32929;-78
2022/04/09 06:07:40;;;;;;;4.22;1.40;;;;;;;13.68;68.39;98021.13;4484653;32;32206;-78
2022/04/09 06:10:10;;;;;;;5.45;1.58;;;;;;;13.77;67.89;98019.50;4485397;32;34391;-78
2022/04/09 06:12:38;;;;;;;12.37;7.62;;;;;;;13.65;68.06;98027.22;4471692;32;34060;-79
2022/04/09 06:15:09;;;;;;;5.03;2.12;;;;;;;13.48;68.86;98022.72;4471886;32;31743;-78
2022/04/09 06:17:39;;;;;;;3.30;1.42;;;;;;;13.49;68.96;98024.38;4484375;32;33889;-78
2022/04/09 06:20:08;;;;;;;3.30;1.17;;;;;;;13.42;69.18;98034.81;4484446;32;34431;-77
2022/04/09 06:22:41;;;;;;;5.03;2.40;;;;;;;13.74;68.03;98036.59;4484304;32;34046;-79
2022/04/09 06:25:09;;;;;;;5.57;3.17;;;;;;;13.66;68.33;98018.66;4471314;32;31930;-77
2022/04/09 06:27:42;;;;;;;4.32;1.70;;;;;;;13.62;68.67;98013.97;4484225;32;33910;-78
2022/04/09 06:30:11;;;;;;;5.70;2.90;;;;;;;13.75;68.31;98021.72;4484411;32;35230;-77
2022/04/09 06:32:39;;;;;;;4.80;1.87;;;;;;;13.73;69.02;98007.38;4484268;32;34064;-78
2022/04/09 06:35:07;;;;;;;2.35;1.37;;;;;;;13.67;69.63;98002.94;4471358;32;32787;-77
2022/04/09 06:37:41;;;;;;;3.45;1.67;;;;;;;13.80;69.34;98014.28;4471238;32;34458;-79
2022/04/09 06:40:13;;;;;;;3.80;1.17;;;;;;;13.59;70.16;98011.75;4470674;32;34303;-77
2022/04/09 06:42:43;;;;;;;8.35;5.10;;;;;;;13.88;68.97;98021.22;4483001;32;33625;-77
2022/04/09 06:45:13;;;;;;;7.47;3.37;;;;;;;13.89;69.27;98011.84;4470891;32;32232;-77
2022/04/09 06:47:55;;;;;;;10.07;5.75;;;;;;;13.79;69.29;98023.66;4485064;32;33690;-77
2022/04/09 06:50:23;;;;;;;4.82;1.50;;;;;;;13.82;68.91;98028.63;4470855;32;33955;-78
2022/04/09 06:52:50;;;;;;;2.70;1.27;;;;;;;13.84;68.89;98042.16;4468702;32;33845;-74
2022/04/09 06:55:28;;;;;;;11.07;5.78;;;;;;;14.02;68.19;98047.19;4483815;32;34107;-76
2022/04/09 06:58:03;;;;;;;13.15;7.20;;;;;;;13.85;68.93;98036.38;4469869;32;32235;-76
2022/04/09 07:00:38;;;;;;;4.20;2.15;;;;;;;14.11;67.88;98034.53;4483843;32;35327;-78
2022/04/09 07:03:10;;;;;;;3.80;1.50;;;;;;;14.12;67.60;98040.88;4485122;32;33859;-77
2022/04/09 07:05:38;;;;;;;3.15;1.25;;;;;;;14.13;67.82;98050.81;4483716;32;33224;-78
2022/04/09 07:08:08;;;;;;;4.82;1.80;;;;;;;14.16;68.04;98047.50;4471461;32;33082;-77
2022/04/09 07:10:39;;;;;;;3.25;1.20;;;;;;;14.36;67.80;98043.91;4486760;32;34241;-77
2022/04/09 07:13:09;;;;;;;4.00;1.70;;;;;;;14.27;68.27;98040.91;4485888;32;34752;-77
2022/04/09 07:15:37;;;;;;;4.15;1.55;;;;;;;14.20;69.02;98050.53;4485569;32;32487;-77
2022/04/09 07:18:05;;;;;;;4.43;1.70;;;;;;;14.35;68.38;98065.19;4472702;32;32213;-76
2022/04/09 07:20:36;;;;;;;2.25;1.20;;;;;;;13.23;72.86;98277.97;4485685;32;35400;-77
2022/04/09 07:23:04;;;;;;;2.58;1.00;;;;;;;12.71;71.33;98257.28;4485704;32;33842;-76
2022/04/09 07:25:31;;;;;;;3.92;1.05;;;;;;;12.43;70.44;98252.81;4486905;32;33408;-76
2022/04/09 07:28:01;;;;;;;3.70;1.00;;;;;;;12.04;71.16;98254.81;4485642;32;33876;-76
2022/04/09 07:30:29;;;;;;;4.50;1.42;;;;;;;11.82;70.95;98271.25;4485595;32;34305;-76
2022/04/09 07:32:57;;;;;;;4.62;1.30;;;;;;;11.63;70.90;98258.84;4486711;32;33778;-76
2022/04/09 07:35:26;;;;;;;0.70;0.50;;;;;;;11.87;70.80;98248.50;4472637;32;32018;-77
2022/04/09 07:37:55;;;;;;;1.23;0.43;;;;;;;12.30;68.89;98242.22;4459769;32;32629;-76
2022/04/09 07:40:24;;;;;;;4.80;1.15;;;;;;;12.19;68.61;98241.25;4485485;32;34409;-76
2022/04/09 07:42:52;;;;;;;1.45;0.68;;;;;;;12.04;69.38;98231.97;4486846;32;33954;-77
2022/04/09 07:45:21;;;;;;;2.30;1.10;;;;;;;12.18;69.45;98225.84;4485052;32;34062;-77
2022/04/09 07:47:56;;;;;;;3.40;1.17;;;;;;;12.12;69.81;98231.53;4485917;32;34594;-77
2022/04/09 07:50:27;;;;;;;4.30;1.17;;;;;;;12.42;69.20;98222.81;4472554;32;34422;-74
2022/04/09 07:52:56;;;;;;;4.57;1.35;;;;;;;12.23;70.30;98227.84;4485544;32;34542;-76
2022/04/09 07:55:24;;;;;;;2.08;0.90;;;;;;;12.31;70.26;98223.81;4486335;32;33661;-76
2022/04/09 07:57:52;;;;;;;4.97;1.40;;;;;;;12.14;70.71;98210.94;4472500;32;32654;-77
2022/04/09 08:00:24;;;;;;;3.05;0.70;;;;;;;12.29;70.84;98213.06;4485172;32;35288;-77
2022/04/09 08:02:51;;;;;;;2.50;0.88;;;;;;;12.35;71.01;98208.44;4485586;32;33964;-76
2022/04/09 08:05:19;;;;;;;2.58;0.93;;;;;;;12.24;71.79;98212.16;4472362;32;34138;-76
2022/04/09 08:07:49;;;;;;;2.35;0.70;;;;;;;12.33;71.31;98213.38;4486524;32;33730;-76
2022/04/09 08:10:18;;;;;;;2.60;0.95;;;;;;;12.54;70.68;98215.25;4472435;32;32806;-76
2022/04/09 08:12:51;;;;;;;1.35;0.73;;;;;;;12.61;70.00;98213.12;4485201;32;33968;-76
2022/04/09 08:15:22;;;;;;;2.55;0.95;;;;;;;12.82;69.33;98206.78;4485326;32;33523;-76
2022/04/09 08:17:54;;;;;;;3.10;1.02;;;;;;;12.96;69.10;98222.88;4485289;32;33743;-75
2022/04/09 08:20:41;;;;;;;2.60;0.85;;;;;;;13.13;68.58;98212.56;4484389;32;34391;-76
2022/04/09 08:23:08;;;;;;;3.85;1.23;;;;;;;13.00;69.43;98216.56;4459300;32;33568;-76
2022/04/09 08:25:41;;;;;;;2.08;1.00;;;;;;;12.88;70.30;98221.41;4485068;32;31679;-76
2022/04/09 08:28:09;;;;;;;4.03;1.35;;;;;;;13.08;69.90;98220.75;4472297;32;33764;-76
2022/04/09 08:30:43;;;;;;;6.90;2.03;;;;;;;12.78;71.21;98230.41;4486241;32;35322;-76
2022/04/09 08:33:16;;;;;;;3.35;1.15;;;;;;;12.74;71.99;98232.00;4472452;32;34045;-77
2022/04/09 08:35:49;;;;;;;4.57;1.50;;;;;;;13.24;69.67;98230.88;4472100;32;32795;-76
2022/04/09 08:38:19;;;;;;;4.50;1.10;;;;;;;13.20;70.91;98221.47;4486293;32;34457;-76
2022/04/09 08:40:50;;;;;;;3.67;1.17;;;;;;;12.94;70.54;98233.31;4485120;32;34337;-76
2022/04/09 08:43:18;;;;;;;3.35;1.10;;;;;;;12.68;71.00;98233.03;4486162;32;34137;-75
2022/04/09 08:46:07;;;;;;;3.78;1.30;;;;;;;13.06;69.89;98232.03;4485278;32;33221;-76
2022/04/09 08:48:43;;;;;;;4.10;1.25;;;;;;;12.93;70.53;98228.91;4484922;32;34174;-77
2022/04/09 08:51:14;;;;;;;5.55;1.30;;;;;;;13.32;68.86;98241.41;4471728;32;32675;-76
2022/04/09 08:54:04;;;;;;;4.75;1.75;;;;;;;13.17;69.79;98250.38;4474018;32;34866;-77
2022/04/09 08:56:41;;;;;;;5.35;1.70;;;;;;;13.10;70.04;98260.72;4473285;32;34068;-78
2022/04/09 08:59:14;;;;;;;4.82;1.37;;;;;;;12.90;70.29;98257.78;4472065;32;34669;-76
2022/04/09 09:01:53;;;;;;;3.37;1.33;;;;;;;13.01;69.39;98264.22;4484949;32;34784;-77
2022/04/09 09:04:24;;;;;;;3.42;1.25;;;;;;;13.20;69.10;98271.03;4472485;32;34118;-77
2022/04/09 09:06:52;;;;;;;2.80;1.40;;;;;;;13.04;69.92;98275.53;4485118;32;33162;-77
2022/04/09 09:09:36;;;;;;;4.03;1.35;;;;;;;12.92;70.80;98283.16;4472293;32;33848;-77
2022/04/09 09:12:06;;;;;;;9.52;2.30;;;;;;;12.82;71.44;98286.59;4472376;32;33973;-77
2022/04/09 09:14:36;;;;;;;4.65;1.85;;;;;;;12.96;70.68;98292.56;4472435;32;33953;-77
2022/04/09 09:17:04;;;;;;;6.60;1.87;;;;;;;12.89;71.65;98293.84;4484838;32;33350;-77
2022/04/09 09:19:47;;;;;;;3.70;1.62;;;;;;;12.88;70.21;98298.50;4472078;32;32942;-77
2022/04/09 09:22:21;;;;;;;2.50;1.27;;;;;;;12.35;67.87;98299.25;4472295;32;34136;-77
2022/04/09 09:25:02;;;;;;;;;;;;;;;13.02;66.35;98302.50;4485308;32;33948;-77
2022/04/09 09:27:37;;;;;;;2.42;1.02;;;;;;;12.78;65.85;98310.25;4472408;32;31478;-76
2022/04/09 09:30:09;;;;;;;4.00;1.30;;;;;;;13.20;64.67;98312.38;4471653;31;33553;-76
2022/04/09 09:32:41;;;;;;;3.03;1.37;;;;;;;12.96;64.88;98328.34;4484206;32;33462;-77
2022/04/09 09:35:13;;;;;;;4.50;1.73;;;;;;;12.98;65.62;98328.94;4484915;32;34792;-77
2022/04/09 09:37:44;;;;;;;2.62;1.30;;;;;;;12.28;68.15;98357.19;4485911;32;33220;-77
2022/04/09 09:40:30;;;;;;;2.95;1.48;;;;;;;12.19;67.70;98369.69;4484761;32;33910;-77
2022/04/09 09:43:18;;;;;;;2.95;1.48;;;;;;;12.05;67.92;98390.38;4463273;31;35270;-79
2022/04/09 09:45:46;;;;;;;6.43;1.75;;;;;;;11.71;68.11;98404.06;4486061;31;33992;-78
2022/04/09 09:48:22;;;;;;;3.40;1.48;;;;;;;11.43;68.67;98429.66;4483036;31;34234;-79
2022/04/09 09:50:51;;;;;;;2.58;1.30;;;;;;;11.26;65.96;98449.91;4482831;32;34462;-86
2022/04/09 09:53:33;;;;;;;1.60;1.10;;;;;;;10.83;66.00;98479.50;4458728;32;34624;-77
2022/04/09 09:56:02;;;;;;;2.15;1.20;;;;;;;10.51;65.99;98473.53;4458621;32;30495;-77
2022/04/09 09:58:36;;;;;;;2.70;1.30;;;;;;;10.16;65.85;98469.91;4471911;32;34071;-77
2022/04/09 10:01:16;;;;;;;5.43;1.83;;;;;;;10.45;67.00;98476.41;4461539;32;33756;-76
2022/04/09 10:03:44;;;;;;;4.00;2.17;;;;;;;10.27;66.29;98495.72;4470493;32;34483;-77
2022/04/09 10:06:17;;;;;;;3.97;2.15;;;;;;;10.46;66.47;98494.53;4458559;32;33859;-77
2022/04/09 10:08:47;;;;;;;3.83;1.70;;;;;;;10.51;67.02;98495.47;4471657;32;33566;-77
2022/04/09 10:11:20;;;;;;;3.20;1.75;;;;;;;10.43;65.45;98489.50;4458491;32;33202;-77
2022/04/09 10:13:49;;;;;;;2.75;1.70;;;;;;;10.31;66.24;98497.75;4485394;32;35035;-77
2022/04/09 10:16:21;;;;;;;2.67;1.52;;;;;;;10.28;65.95;98497.38;4471263;32;33661;-77
2022/04/09 10:18:52;;;;;;;2.92;1.60;;;;;;;9.70;67.49;98504.38;4458818;32;33333;-77
2022/04/09 10:21:20;;;;;;;12.10;6.95;;;;;;;10.18;66.24;98498.78;4471390;32;34521;-77
2022/04/09 10:23:47;;;;;;;6.03;2.90;;;;;;;10.07;66.27;98501.47;4471262;32;34363;-77
2022/04/09 10:26:15;;;;;;;2.75;1.70;;;;;;;9.61;66.88;98505.75;4458146;32;33318;-77
2022/04/09 10:28:51;;;;;;;2.90;1.60;;;;;;;9.38;66.36;98508.38;4458625;32;33317;-76
2022/04/09 10:31:22;;;;;;;2.37;1.55;;;;;;;9.07;68.45;98512.97;4471095;32;33095;-76
2022/04/09 10:33:58;;;;;;;2.97;1.73;;;;;;;10.09;65.86;98510.31;4470922;32;32650;-78
2022/04/09 10:36:41;;;;;;;2.83;1.67;;;;;;;9.79;65.21;98507.59;4470809;32;34869;-77
2022/04/09 10:39:29;;;;;;;4.53;2.10;;;;;;;9.47;66.23;98513.31;4483664;32;33281;-76
2022/04/09 10:42:01;;;;;;;3.00;1.70;;;;;;;9.37;65.11;98532.19;4471426;32;34496;-77
2022/04/09 10:44:48;;;;;;;4.03;2.10;;;;;;;9.40;63.73;98550.91;4460068;32;32989;-77
2022/04/09 10:47:16;;;;;;;5.97;2.70;;;;;;;9.56;63.43;98543.97;4472588;32;32388;-78
2022/04/09 10:50:02;;;;;;;4.43;2.08;;;;;;;9.31;63.82;98567.84;4472929;32;34235;-77
2022/04/09 10:52:30;;;;;;;4.90;2.47;;;;;;;9.48;64.95;98568.91;4487322;32;33727;-76
2022/04/09 10:55:10;;;;;;;4.85;2.15;;;;;;;9.32;60.89;98586.78;4472943;32;34330;-76
2022/04/09 10:57:43;;;;;;;2.03;1.40;;;;;;;9.02;63.30;98569.47;4486997;32;34895;-76
2022/04/09 11:00:31;;;;;;;4.60;2.15;;;;;;;9.06;62.09;98567.94;4459779;32;34116;-77
2022/04/09 11:03:28;;;;;;;3.17;1.50;;;;;;;8.92;63.01;98578.19;4472669;32;33540;-77
2022/04/09 11:06:44;;;;;;;1.90;1.20;;;;;;;8.98;62.41;98585.50;4467370;32;32764;-77
2022/04/09 11:09:17;;;;;;;2.42;1.37;;;;;;;8.87;62.04;98595.28;4460581;32;33693;-76
2022/04/09 11:11:44;;;;;;;2.15;1.40;;;;;;;8.55;60.85;98608.16;4460200;32;33155;-76
2022/04/09 11:14:15;;;;;;;3.50;1.58;;;;;;;8.96;60.82;98592.25;4472470;32;32211;-77
2022/04/09 11:16:43;;;;;;;5.03;2.40;;;;;;;8.68;61.99;98618.16;4472814;32;34577;-76
2022/04/09 11:19:11;;;;;;;3.78;1.50;;;;;;;8.71;61.19;98636.03;4472729;32;33920;-77
2022/04/09 11:21:39;;;;;;;3.55;1.45;;;;;;;9.02;60.31;98649.66;4460002;32;33375;-76
2022/04/09 11:24:09;;;;;;;2.58;1.37;;;;;;;8.56;62.18;98641.81;4472787;32;33615;-76
2022/04/09 11:26:39;;;;;;;4.35;2.00;;;;;;;9.14;61.35;98631.41;4459588;32;32931;-77
2022/04/09 11:29:11;;;;;;;2.90;1.27;;;;;;;9.01;60.96;98653.47;4472623;32;34174;-77
2022/04/09 11:31:46;;;;;;;3.15;1.70;;;;;;;9.06;60.27;98674.69;4459520;32;33569;-76
2022/04/09 11:34:18;;;;;;;4.45;1.92;;;;;;;9.73;59.39;98670.19;4472832;32;33553;-77
2022/04/09 11:36:45;;;;;;;3.33;1.60;;;;;;;9.79;59.36;98680.22;4486760;32;34648;-77
2022/04/09 11:39:13;;;;;;;2.92;1.70;;;;;;;9.34;58.05;98688.72;4472694;32;34088;-76
2022/04/09 11:41:46;;;;;;;3.15;1.70;;;;;;;9.15;58.81;98681.53;4460149;32;33353;-76
2022/04/09 11:44:27;;;;;;;4.65;1.95;;;;;;;9.34;58.12;98691.44;4472499;32;33632;-76
2022/04/09 11:47:02;;;;;;;2.87;1.60;;;;;;;9.64;57.71;98680.63;4486718;32;34281;-77
2022/04/09 11:49:33;;;;;;;5.28;2.00;;;;;;;9.32;57.36;98688.09;4459941;32;33891;-77
2022/04/09 11:52:04;;;;;;;4.50;1.87;;;;;;;9.45;57.82;98706.31;4472917;32;33264;-77